createdAt,value
2022-08-19T00:00:02.052Z,18.75
2022-08-19T00:01:02.024Z,18.78
2022-08-19T00:02:02.018Z,18.78
2022-08-19T00:03:02.120Z,18.78
2022-08-19T00:04:02.018Z,18.80
2022-08-19T00:05:02.036Z,18.81
2022-08-19T00:06:01.969Z,18.74
2022-08-19T00:07:02.007Z,18.74
2022-08-19T00:08:01.982Z,18.77
2022-08-19T00:09:01.992Z,18.78
2022-08-19T00:10:01.928Z,18.81
2022-08-19T00:11:01.913Z,18.70
2022-08-19T00:12:01.906Z,18.70
2022-08-19T00:13:01.892Z,18.65
2022-08-19T00:14:01.896Z,18.71
2022-08-19T00:15:01.881Z,18.73
2022-08-19T00:16:01.867Z,18.84
2022-08-19T00:17:01.846Z,18.77
2022-08-19T00:18:01.845Z,18.81
2022-08-19T00:19:01.837Z,18.77
2022-08-19T00:20:01.829Z,18.86
2022-08-19T00:21:01.812Z,18.66
2022-08-19T00:22:01.802Z,18.77
2022-08-19T00:23:01.779Z,18.68
2022-08-19T00:24:01.796Z,18.63
2022-08-19T00:25:02.188Z,18.59
2022-08-19T00:26:01.748Z,18.65
2022-08-19T00:27:24.840Z,18.63
2022-08-19T00:28:02.733Z,18.58
2022-08-19T00:29:01.717Z,18.56
2022-08-19T00:30:01.754Z,18.45
2022-08-19T00:31:01.695Z,18.45
2022-08-19T00:32:01.687Z,18.44
2022-08-19T00:33:01.673Z,18.50
2022-08-19T00:34:01.673Z,18.41
2022-08-19T00:35:01.666Z,18.43
2022-08-19T00:36:01.643Z,18.44
2022-08-19T00:37:01.627Z,18.44
2022-08-19T00:38:01.623Z,18.45
2022-08-19T00:39:01.611Z,18.38
2022-08-19T00:40:01.719Z,18.40
2022-08-19T00:41:01.600Z,18.33
2022-08-19T00:42:01.576Z,18.34
2022-08-19T00:43:01.567Z,18.31
2022-08-19T00:44:01.556Z,18.33
2022-08-19T00:45:01.542Z,18.28
2022-08-19T00:46:01.560Z,18.41
2022-08-19T00:47:01.522Z,18.37
2022-08-19T00:48:01.510Z,18.33
2022-08-19T00:49:01.509Z,18.34
2022-08-19T00:50:01.519Z,18.34
2022-08-19T00:51:01.474Z,18.35
2022-08-19T00:52:01.463Z,18.26
2022-08-19T00:53:01.466Z,18.28
2022-08-19T00:54:01.439Z,18.35
2022-08-19T00:55:01.428Z,18.28
2022-08-19T00:56:01.436Z,18.33
2022-08-19T00:57:01.403Z,18.29
2022-08-19T00:58:01.397Z,18.23
2022-08-19T00:59:01.395Z,18.25
2022-08-19T01:00:03.140Z,18.25
2022-08-19T01:01:01.360Z,18.23
2022-08-19T01:02:01.363Z,18.18
2022-08-19T01:03:01.336Z,18.22
2022-08-19T01:04:01.330Z,18.13
2022-08-19T01:05:01.331Z,18.19
2022-08-19T01:06:01.325Z,18.15
2022-08-19T01:07:01.294Z,18.05
2022-08-19T01:08:01.306Z,18.05
2022-08-19T01:09:01.269Z,18.04
2022-08-19T01:10:01.268Z,18.03
2022-08-19T01:11:01.259Z,18.16
2022-08-19T01:12:01.243Z,18.05
2022-08-19T01:13:01.239Z,18.03
2022-08-19T01:14:01.233Z,18.08
2022-08-19T01:15:01.214Z,18.04
2022-08-19T01:16:01.202Z,18.07
2022-08-19T01:17:01.193Z,18.03
2022-08-19T01:18:01.212Z,18.07
2022-08-19T01:19:01.172Z,18.03
2022-08-19T01:20:01.198Z,18.03
2022-08-19T01:21:01.139Z,18.10
2022-08-19T01:22:01.136Z,18.00
2022-08-19T01:23:02.127Z,18.13
2022-08-19T01:24:01.164Z,18.04
2022-08-19T01:25:01.089Z,18.05
2022-08-19T01:26:01.083Z,18.13
2022-08-19T01:27:01.069Z,18.08
2022-08-19T01:28:10.617Z,18.08
2022-08-19T01:29:02.166Z,18.08
2022-08-19T01:30:01.047Z,18.10
2022-08-19T01:31:01.024Z,18.08
2022-08-19T01:32:02.056Z,18.13
2022-08-19T01:33:01.005Z,18.03
2022-08-19T01:34:00.994Z,18.01
2022-08-19T01:35:00.984Z,18.00
2022-08-19T01:36:00.980Z,17.98
2022-08-19T01:37:00.955Z,17.98
2022-08-19T01:38:00.964Z,17.95
2022-08-19T01:39:00.942Z,17.97
2022-08-19T01:40:00.940Z,17.97
2022-08-19T01:41:00.931Z,17.98
2022-08-19T01:42:00.910Z,17.92
2022-08-19T01:43:00.905Z,18.01
2022-08-19T01:44:16.978Z,17.94
2022-08-19T01:45:01.873Z,18.01
2022-08-19T01:46:00.864Z,18.04
2022-08-19T01:47:00.864Z,17.95
2022-08-19T01:48:01.870Z,17.97
2022-08-19T01:49:00.850Z,17.94
2022-08-19T01:50:00.844Z,17.92
2022-08-19T01:51:00.809Z,17.83
2022-08-19T01:52:00.791Z,17.83
2022-08-19T01:53:06.147Z,17.80
2022-08-19T01:54:01.781Z,17.89
2022-08-19T01:55:00.773Z,17.83
2022-08-19T01:56:00.749Z,17.85
2022-08-19T01:57:00.737Z,17.85
2022-08-19T01:58:00.725Z,17.78
2022-08-19T01:59:00.721Z,17.78
2022-08-19T02:00:00.703Z,17.80
2022-08-19T02:01:00.760Z,17.83
2022-08-19T02:02:00.692Z,17.79
2022-08-19T02:03:00.677Z,17.74
2022-08-19T02:04:00.656Z,17.74
2022-08-19T02:05:00.658Z,17.78
2022-08-19T02:06:00.632Z,17.78
2022-08-19T02:07:00.630Z,17.72
2022-08-19T02:08:00.613Z,17.72
2022-08-19T02:09:00.598Z,17.72
2022-08-19T02:10:00.603Z,17.74
2022-08-19T02:11:00.588Z,17.74
2022-08-19T02:12:00.571Z,17.76
2022-08-19T02:13:00.582Z,17.82
2022-08-19T02:14:00.560Z,17.85
2022-08-19T02:15:00.560Z,17.83
2022-08-19T02:16:00.519Z,17.85
2022-08-19T02:17:00.521Z,17.76
2022-08-19T02:18:00.525Z,17.83
2022-08-19T02:19:00.488Z,17.80
2022-08-19T02:20:00.510Z,17.80
2022-08-19T02:21:00.502Z,17.83
2022-08-19T02:22:00.459Z,17.78
2022-08-19T02:23:00.449Z,17.87
2022-08-19T02:24:00.437Z,17.82
2022-08-19T02:25:00.434Z,17.76
2022-08-19T02:26:00.428Z,17.79
2022-08-19T02:27:00.396Z,17.78
2022-08-19T02:28:00.403Z,17.70
2022-08-19T02:29:00.373Z,17.74
2022-08-19T02:30:00.379Z,17.71
2022-08-19T02:31:00.367Z,17.76
2022-08-19T02:32:00.358Z,17.64
2022-08-19T02:33:00.336Z,17.72
2022-08-19T02:34:00.326Z,17.63
2022-08-19T02:35:00.322Z,17.65
2022-08-19T02:36:00.314Z,17.70
2022-08-19T02:37:03.574Z,17.60
2022-08-19T02:38:00.283Z,17.67
2022-08-19T02:39:00.263Z,17.57
2022-08-19T02:40:00.385Z,17.60
2022-08-19T02:41:00.245Z,17.60
2022-08-19T02:42:00.235Z,17.51
2022-08-19T02:43:00.223Z,17.64
2022-08-19T02:44:26.274Z,17.60
2022-08-19T02:45:01.285Z,17.52
2022-08-19T02:46:00.187Z,17.64
2022-08-19T02:47:00.198Z,17.59
2022-08-19T02:48:00.186Z,17.52
2022-08-19T02:49:00.152Z,17.64
2022-08-19T02:50:00.150Z,17.56
2022-08-19T02:51:00.151Z,17.49
2022-08-19T02:52:00.124Z,17.56
2022-08-19T02:53:00.113Z,17.45
2022-08-19T02:54:00.111Z,17.51
2022-08-19T02:55:00.082Z,17.34
2022-08-19T02:56:00.126Z,17.41
2022-08-19T02:57:01.042Z,17.49
2022-08-19T02:58:00.067Z,17.52
2022-08-19T02:59:00.044Z,17.36
2022-08-19T03:00:00.043Z,17.49
2022-08-19T03:01:00.036Z,17.36
2022-08-19T03:02:00.018Z,17.39
2022-08-19T03:02:59.992Z,17.36
2022-08-19T03:03:59.991Z,17.39
2022-08-19T03:04:59.980Z,17.44
2022-08-19T03:05:59.969Z,17.31
2022-08-19T03:07:10.874Z,17.31
2022-08-19T03:08:00.945Z,17.52
2022-08-19T03:08:59.933Z,17.41
2022-08-19T03:09:59.929Z,17.34
2022-08-19T03:10:59.901Z,17.39
2022-08-19T03:11:59.921Z,17.49
2022-08-19T03:12:59.878Z,17.45
2022-08-19T03:13:59.872Z,17.33
2022-08-19T03:14:59.860Z,17.39
2022-08-19T03:15:59.865Z,17.42
2022-08-19T03:16:59.870Z,17.36
2022-08-19T03:17:59.824Z,17.31
2022-08-19T03:18:59.816Z,17.41
2022-08-19T03:19:59.804Z,17.34
2022-08-19T03:20:59.790Z,17.38
2022-08-19T03:21:59.782Z,17.36
2022-08-19T03:22:59.782Z,17.29
2022-08-19T03:23:59.764Z,17.31
2022-08-19T03:24:59.760Z,17.33
2022-08-19T03:26:16.183Z,17.41
2022-08-19T03:27:00.722Z,17.34
2022-08-19T03:27:59.728Z,17.33
2022-08-19T03:28:59.730Z,17.31
2022-08-19T03:30:00.720Z,17.29
2022-08-19T03:30:59.678Z,17.24
2022-08-19T03:31:59.705Z,17.22
2022-08-19T03:32:59.746Z,17.26
2022-08-19T03:33:59.666Z,17.24
2022-08-19T03:34:59.636Z,17.20
2022-08-19T03:35:59.628Z,17.23
2022-08-19T03:36:59.631Z,17.23
2022-08-19T03:37:59.605Z,17.22
2022-08-19T03:39:00.059Z,17.24
2022-08-19T03:39:59.608Z,17.16
2022-08-19T03:40:59.569Z,17.11
2022-08-19T03:42:33.166Z,17.19
2022-08-19T03:43:00.927Z,17.12
2022-08-19T03:43:59.541Z,17.15
2022-08-19T03:44:59.527Z,17.11
2022-08-19T03:45:59.510Z,17.11
2022-08-19T03:46:59.504Z,17.05
2022-08-19T03:47:59.505Z,17.05
2022-08-19T03:48:59.512Z,17.11
2022-08-19T03:49:59.467Z,17.05
2022-08-19T03:50:59.459Z,17.08
2022-08-19T03:51:59.444Z,17.05
2022-08-19T03:52:59.435Z,16.93
2022-08-19T03:53:59.437Z,16.89
2022-08-19T03:54:59.421Z,16.75
2022-08-19T03:55:59.399Z,16.75
2022-08-19T03:56:59.391Z,16.72
2022-08-19T03:57:59.492Z,16.71
2022-08-19T03:58:59.379Z,16.74
2022-08-19T04:00:12.710Z,16.76
2022-08-19T04:01:00.399Z,16.74
2022-08-19T04:01:59.338Z,16.74
2022-08-19T04:03:00.871Z,16.75
2022-08-19T04:03:59.327Z,16.76
2022-08-19T04:04:59.328Z,16.78
2022-08-19T04:05:59.297Z,16.72
2022-08-19T04:06:59.279Z,16.75
2022-08-19T04:07:59.263Z,16.72
2022-08-19T04:08:59.274Z,16.81
2022-08-19T04:09:59.253Z,16.78
2022-08-19T04:10:59.258Z,16.83
2022-08-19T04:11:59.223Z,16.84
2022-08-19T04:12:59.234Z,16.81
2022-08-19T04:13:59.197Z,16.83
2022-08-19T04:14:59.211Z,16.84
2022-08-19T04:15:59.192Z,16.84
2022-08-19T04:16:59.170Z,16.81
2022-08-19T04:17:59.160Z,16.78
2022-08-19T04:18:59.144Z,16.83
2022-08-19T04:19:59.150Z,16.84
2022-08-19T04:20:59.124Z,16.84
2022-08-19T04:21:59.113Z,16.84
2022-08-19T04:22:59.103Z,16.84
2022-08-19T04:23:59.085Z,16.89
2022-08-19T04:24:59.089Z,16.84
2022-08-19T04:25:59.063Z,16.84
2022-08-19T04:26:59.058Z,16.89
2022-08-19T04:27:59.049Z,16.86
2022-08-19T04:28:59.045Z,16.89
2022-08-19T04:29:59.043Z,16.89
2022-08-19T04:30:59.010Z,16.83
2022-08-19T04:31:58.997Z,16.86
2022-08-19T04:32:58.991Z,16.87
2022-08-19T04:33:58.972Z,16.96
2022-08-19T04:35:02.298Z,16.90
2022-08-19T04:35:59.963Z,16.89
2022-08-19T04:36:58.943Z,16.94
2022-08-19T04:37:58.930Z,17.02
2022-08-19T04:38:58.922Z,16.91
2022-08-19T04:39:58.952Z,16.96
2022-08-19T04:40:58.907Z,16.89
2022-08-19T04:41:58.883Z,17.05
2022-08-19T04:42:58.883Z,17.05
2022-08-19T04:44:02.515Z,16.97
2022-08-19T04:45:00.080Z,16.93
2022-08-19T04:46:00.754Z,16.99
2022-08-19T04:46:58.848Z,17.02
2022-08-19T04:48:26.336Z,17.06
2022-08-19T04:48:59.820Z,17.12
2022-08-19T04:49:59.794Z,17.01
2022-08-19T04:50:58.807Z,17.08
2022-08-19T04:51:58.771Z,17.11
2022-08-19T04:52:58.767Z,17.15
2022-08-19T04:53:58.752Z,17.09
2022-08-19T04:54:58.742Z,17.15
2022-08-19T04:55:58.745Z,17.15
2022-08-19T04:56:58.722Z,17.22
2022-08-19T04:57:58.720Z,17.22
2022-08-19T04:58:58.697Z,17.19
2022-08-19T04:59:58.697Z,17.23
2022-08-19T05:00:58.740Z,17.24
2022-08-19T05:01:58.687Z,17.30
2022-08-19T05:02:58.659Z,17.33
2022-08-19T05:03:58.647Z,17.31
2022-08-19T05:04:58.633Z,17.38
2022-08-19T05:05:58.625Z,17.33
2022-08-19T05:07:00.779Z,17.45
2022-08-19T05:07:58.633Z,17.46
2022-08-19T05:08:58.592Z,17.48
2022-08-19T05:09:59.271Z,17.56
2022-08-19T05:10:58.568Z,17.51
2022-08-19T05:11:58.556Z,17.59
2022-08-19T05:12:58.577Z,17.54
2022-08-19T05:13:58.534Z,17.60
2022-08-19T05:14:58.533Z,17.63
2022-08-19T05:15:58.616Z,17.64
2022-08-19T05:17:23.643Z,17.63
2022-08-19T05:17:59.495Z,17.60
2022-08-19T05:18:58.478Z,17.59
2022-08-19T05:19:58.458Z,17.76
2022-08-19T05:20:58.452Z,17.72
2022-08-19T05:21:58.442Z,17.67
2022-08-19T05:22:58.460Z,17.68
2022-08-19T05:23:58.422Z,17.70
2022-08-19T05:25:12.261Z,17.67
2022-08-19T05:25:59.476Z,17.76
2022-08-19T05:26:58.384Z,17.71
2022-08-19T05:27:58.366Z,17.71
2022-08-19T05:28:58.388Z,17.78
2022-08-19T05:29:58.351Z,17.68
2022-08-19T05:30:58.343Z,17.80
2022-08-19T05:31:58.354Z,17.82
2022-08-19T05:32:58.333Z,17.79
2022-08-19T05:33:58.333Z,17.83
2022-08-19T05:34:58.307Z,17.85
2022-08-19T05:35:58.278Z,17.94
2022-08-19T05:36:58.272Z,17.98
2022-08-19T05:37:58.984Z,18.05
2022-08-19T05:38:58.255Z,18.04
2022-08-19T05:39:58.307Z,17.95
2022-08-19T05:40:58.238Z,18.05
2022-08-19T05:41:58.211Z,18.10
2022-08-19T05:42:58.206Z,18.16
2022-08-19T05:43:58.190Z,18.22
2022-08-19T05:44:58.208Z,18.22
2022-08-19T05:45:58.175Z,18.34
2022-08-19T05:46:58.161Z,18.37
2022-08-19T05:47:58.149Z,18.43
2022-08-19T05:48:58.145Z,18.47
2022-08-19T05:49:58.142Z,18.53
2022-08-19T05:50:58.114Z,18.53
2022-08-19T05:51:58.110Z,18.70
2022-08-19T05:52:58.214Z,18.83
2022-08-19T05:53:58.098Z,18.90
2022-08-19T05:54:58.074Z,19.08
2022-08-19T05:55:58.072Z,19.12
2022-08-19T05:56:58.049Z,19.33
2022-08-19T05:57:58.028Z,19.37
2022-08-19T05:58:58.344Z,19.47
2022-08-19T05:59:59.033Z,19.62
2022-08-19T06:00:58.019Z,19.79
2022-08-19T06:01:58.020Z,19.88
2022-08-19T06:02:58.037Z,20.06
2022-08-19T06:03:57.972Z,20.06
2022-08-19T06:04:57.972Z,20.03
2022-08-19T06:05:57.948Z,20.10
2022-08-19T06:06:57.934Z,20.26
2022-08-19T06:07:57.924Z,20.32
2022-08-19T06:08:57.925Z,20.44
2022-08-19T06:10:00.373Z,20.58
2022-08-19T06:10:57.900Z,20.77
2022-08-19T06:11:57.880Z,20.84
2022-08-19T06:12:57.870Z,20.97
2022-08-19T06:14:00.254Z,21.14
2022-08-19T06:15:00.635Z,21.25
2022-08-19T06:15:57.849Z,21.45
2022-08-19T06:16:57.824Z,21.62
2022-08-19T06:17:57.811Z,21.77
2022-08-19T06:18:57.804Z,21.99
2022-08-19T06:19:57.790Z,22.18
2022-08-19T06:20:57.798Z,22.23
2022-08-19T06:21:57.774Z,22.39
2022-08-19T06:22:57.758Z,22.57
2022-08-19T06:23:57.749Z,22.68
2022-08-19T06:24:57.737Z,22.91
2022-08-19T06:25:57.741Z,23.02
2022-08-19T06:27:00.801Z,23.24
2022-08-19T06:28:14.663Z,23.27
2022-08-19T06:28:58.700Z,23.54
2022-08-19T06:29:57.679Z,23.73
2022-08-19T06:30:57.681Z,23.87
2022-08-19T06:31:57.681Z,23.98
2022-08-19T06:32:57.656Z,24.18
2022-08-19T06:33:57.642Z,24.29
2022-08-19T06:34:57.636Z,24.42
2022-08-19T06:35:57.613Z,24.57
2022-08-19T06:36:57.611Z,24.65
2022-08-19T06:37:57.911Z,24.84
2022-08-19T06:38:57.620Z,24.91
2022-08-19T06:39:57.617Z,24.95
2022-08-19T06:40:57.561Z,24.96
2022-08-19T06:41:58.956Z,25.06
2022-08-19T06:42:57.905Z,25.21
2022-08-19T06:43:57.552Z,25.28
2022-08-19T06:44:57.541Z,25.44
2022-08-19T06:45:57.531Z,25.43
2022-08-19T06:46:57.506Z,25.32
2022-08-19T06:47:57.485Z,25.26
2022-08-19T06:48:57.476Z,25.38
2022-08-19T06:50:02.847Z,25.46
2022-08-19T06:50:58.463Z,25.46
2022-08-19T06:51:57.525Z,25.58
2022-08-19T06:52:57.436Z,25.70
2022-08-19T06:53:57.417Z,25.68
2022-08-19T06:54:59.684Z,25.77
2022-08-19T06:55:57.395Z,25.75
2022-08-19T06:56:57.494Z,25.75
2022-08-19T06:57:57.390Z,25.59
2022-08-19T06:58:57.365Z,25.54
2022-08-19T06:59:57.352Z,25.60
2022-08-19T07:00:57.356Z,25.70
2022-08-19T07:01:57.333Z,25.65
2022-08-19T07:03:00.878Z,25.62
2022-08-19T07:03:58.429Z,25.51
2022-08-19T07:04:57.310Z,25.36
2022-08-19T07:05:57.305Z,25.48
2022-08-19T07:06:57.301Z,25.43
2022-08-19T07:07:59.715Z,25.54
2022-08-19T07:08:58.264Z,25.50
2022-08-19T07:09:59.131Z,25.58
2022-08-19T07:10:57.264Z,25.48
2022-08-19T07:11:57.268Z,25.55
2022-08-19T07:12:57.219Z,25.38
2022-08-19T07:13:57.229Z,25.22
2022-08-19T07:14:57.196Z,25.07
2022-08-19T07:15:57.225Z,25.06
2022-08-19T07:16:57.191Z,24.96
2022-08-19T07:17:57.161Z,24.99
2022-08-19T07:18:57.159Z,24.88
2022-08-19T07:19:57.141Z,24.86
2022-08-19T07:20:57.141Z,24.73
2022-08-19T07:21:57.143Z,24.61
2022-08-19T07:22:58.128Z,24.63
2022-08-19T07:23:57.113Z,24.60
2022-08-19T07:24:57.112Z,24.65
2022-08-19T07:25:57.134Z,24.55
2022-08-19T07:26:57.083Z,24.60
2022-08-19T07:27:57.232Z,24.61
2022-08-19T07:28:57.076Z,24.78
2022-08-19T07:29:57.527Z,24.78
2022-08-19T07:30:57.027Z,24.74
2022-08-19T07:31:57.040Z,24.76
2022-08-19T07:32:57.009Z,24.91
2022-08-19T07:33:56.990Z,24.93
2022-08-19T07:34:57.248Z,24.88
2022-08-19T07:35:57.003Z,24.86
2022-08-19T07:36:56.966Z,24.81
2022-08-19T07:37:56.966Z,24.84
2022-08-19T07:38:56.945Z,24.81
2022-08-19T07:39:56.986Z,24.88
2022-08-19T07:40:56.935Z,24.80
2022-08-19T07:41:56.903Z,24.77
2022-08-19T07:42:56.907Z,24.84
2022-08-19T07:43:56.885Z,24.99
2022-08-19T07:44:56.877Z,24.99
2022-08-19T07:45:56.899Z,25.03
2022-08-19T07:46:56.851Z,25.07
2022-08-19T07:47:56.848Z,25.13
2022-08-19T07:48:56.827Z,25.28
2022-08-19T07:49:56.816Z,25.25
2022-08-19T07:50:56.812Z,25.40
2022-08-19T07:51:56.796Z,25.36
2022-08-19T07:52:56.838Z,25.53
2022-08-19T07:53:56.776Z,25.58
2022-08-19T07:54:56.760Z,25.50
2022-08-19T07:55:56.756Z,25.47
2022-08-19T07:56:56.747Z,25.46
2022-08-19T07:57:56.733Z,25.43
2022-08-19T07:59:56.712Z,25.51
2022-08-19T08:00:56.695Z,25.51
2022-08-19T08:01:56.779Z,25.60
2022-08-19T08:02:56.758Z,25.55
2022-08-19T08:03:56.668Z,25.62
2022-08-19T08:04:56.656Z,25.48
2022-08-19T08:05:56.653Z,25.59
2022-08-19T08:06:56.656Z,25.66
2022-08-19T08:07:56.657Z,25.62
2022-08-19T08:08:56.612Z,25.48
2022-08-19T08:09:56.634Z,25.53
2022-08-19T08:11:04.164Z,25.41
2022-08-19T08:11:57.699Z,25.50
2022-08-19T08:13:09.202Z,25.54
2022-08-19T08:14:00.869Z,25.62
2022-08-19T08:14:57.544Z,25.48
2022-08-19T08:15:56.614Z,25.53
2022-08-19T08:16:56.533Z,25.62
2022-08-19T08:17:56.525Z,25.72
2022-08-19T08:18:56.496Z,25.72
2022-08-19T08:19:56.494Z,25.80
2022-08-19T08:20:56.487Z,25.83
2022-08-19T08:21:56.479Z,25.88
2022-08-19T08:22:56.468Z,25.88
2022-08-19T08:23:56.593Z,25.96
2022-08-19T08:24:56.448Z,25.96
2022-08-19T08:25:56.424Z,25.95
2022-08-19T08:26:57.503Z,26.02
2022-08-19T08:27:56.468Z,26.05
2022-08-19T08:28:56.391Z,26.00
2022-08-19T08:29:56.381Z,26.18
2022-08-19T08:30:56.390Z,26.07
2022-08-19T08:31:59.736Z,26.05
2022-08-19T08:32:56.374Z,26.03
2022-08-19T08:33:56.341Z,26.06
2022-08-19T08:34:56.327Z,25.98
2022-08-19T08:35:56.318Z,25.98
2022-08-19T08:36:56.300Z,25.99
2022-08-19T08:37:56.698Z,26.00
2022-08-19T08:39:56.312Z,26.07
2022-08-19T08:40:56.258Z,26.23
2022-08-19T08:41:56.256Z,26.28
2022-08-19T08:42:56.255Z,26.22
2022-08-19T08:43:56.231Z,26.36
2022-08-19T08:45:56.209Z,26.48
2022-08-19T08:46:56.194Z,26.48
2022-08-19T08:47:56.217Z,26.60
2022-08-19T08:48:56.174Z,26.52
2022-08-19T08:49:56.170Z,26.65
2022-08-19T08:50:56.152Z,26.66
2022-08-19T08:51:59.822Z,26.60
2022-08-19T08:52:56.131Z,26.71
2022-08-19T08:53:56.293Z,26.83
2022-08-19T08:54:56.115Z,26.70
2022-08-19T08:55:56.097Z,26.70
2022-08-19T08:56:56.091Z,26.47
2022-08-19T08:57:56.543Z,26.37
2022-08-19T08:58:56.067Z,26.29
2022-08-19T08:59:56.058Z,26.28
2022-08-19T09:00:56.045Z,26.28
2022-08-19T09:01:56.075Z,26.23
2022-08-19T09:02:56.043Z,26.26
2022-08-19T09:03:56.027Z,26.38
2022-08-19T09:04:57.012Z,26.33
2022-08-19T09:05:55.990Z,26.41
2022-08-19T09:06:55.978Z,26.43
2022-08-19T09:07:56.096Z,26.48
2022-08-19T09:08:56.996Z,26.63
2022-08-19T09:09:56.111Z,26.73
2022-08-19T09:10:55.964Z,26.75
2022-08-19T09:11:55.927Z,26.73
2022-08-19T09:12:55.927Z,26.70
2022-08-19T09:13:55.903Z,26.52
2022-08-19T09:14:55.916Z,26.56
2022-08-19T09:15:55.903Z,26.68
2022-08-19T09:16:55.871Z,26.73
2022-08-19T09:17:55.915Z,26.85
2022-08-19T09:18:55.847Z,27.00
2022-08-19T09:19:55.856Z,26.96
2022-08-19T09:20:55.842Z,26.97
2022-08-19T09:21:55.817Z,26.84
2022-08-19T09:22:55.808Z,26.90
2022-08-19T09:23:55.806Z,27.07
2022-08-19T09:24:55.830Z,27.08
2022-08-19T09:25:55.793Z,27.18
2022-08-19T09:26:55.770Z,27.33
2022-08-19T09:27:56.123Z,27.37
2022-08-19T09:28:56.739Z,27.26
2022-08-19T09:29:55.737Z,27.17
2022-08-19T09:30:55.734Z,27.12
2022-08-19T09:31:55.713Z,27.21
2022-08-19T09:32:55.693Z,27.17
2022-08-19T09:33:55.684Z,27.11
2022-08-19T09:34:55.786Z,27.15
2022-08-19T09:35:55.730Z,27.11
2022-08-19T09:36:55.752Z,26.93
2022-08-19T09:37:57.809Z,26.95
2022-08-19T09:38:55.687Z,26.85
2022-08-19T09:39:55.738Z,26.96
2022-08-19T09:40:55.619Z,27.08
2022-08-19T09:41:55.672Z,27.08
2022-08-19T09:42:55.587Z,27.05
2022-08-19T09:43:55.581Z,27.05
2022-08-19T09:44:55.571Z,27.25
2022-08-19T09:45:55.558Z,27.32
2022-08-19T09:46:55.583Z,27.25
2022-08-19T09:47:55.819Z,27.14
2022-08-19T09:48:55.523Z,26.95
2022-08-19T09:49:55.520Z,26.78
2022-08-19T09:50:55.501Z,26.96
2022-08-19T09:51:55.506Z,27.10
2022-08-19T09:52:57.272Z,27.20
2022-08-19T09:53:55.495Z,27.25
2022-08-19T09:54:55.461Z,27.36
2022-08-19T09:55:55.449Z,27.40
2022-08-19T09:56:55.444Z,27.65
2022-08-19T09:57:55.571Z,27.77
2022-08-19T09:58:55.440Z,27.77
2022-08-19T09:59:55.409Z,27.83
2022-08-19T10:00:55.428Z,27.82
2022-08-19T10:01:55.391Z,27.93
2022-08-19T10:02:56.371Z,27.77
2022-08-19T10:03:55.361Z,27.67
2022-08-19T10:04:55.369Z,27.74
2022-08-19T10:05:55.599Z,27.52
2022-08-19T10:06:55.451Z,27.68
2022-08-19T10:07:55.430Z,27.65
2022-08-19T10:08:55.302Z,27.67
2022-08-19T10:09:55.311Z,27.47
2022-08-19T10:10:55.305Z,27.20
2022-08-19T10:11:55.283Z,27.10
2022-08-19T10:12:55.291Z,27.25
2022-08-19T10:13:55.297Z,27.21
2022-08-19T10:14:55.236Z,27.32
2022-08-19T10:15:55.719Z,27.37
2022-08-19T10:16:55.241Z,27.44
2022-08-19T10:17:55.520Z,27.51
2022-08-19T10:18:58.914Z,27.74
2022-08-19T10:19:56.130Z,27.80
2022-08-19T10:20:55.175Z,27.89
2022-08-19T10:21:55.787Z,27.95
2022-08-19T10:22:56.161Z,27.96
2022-08-19T10:23:55.139Z,28.11
2022-08-19T10:24:55.132Z,28.07
2022-08-19T10:25:55.116Z,28.17
2022-08-19T10:26:57.130Z,28.15
2022-08-19T10:27:56.014Z,28.12
2022-08-19T10:28:55.099Z,28.02
2022-08-19T10:29:55.070Z,27.86
2022-08-19T10:30:55.071Z,27.86
2022-08-19T10:32:01.215Z,27.80
2022-08-19T10:32:56.035Z,27.83
2022-08-19T10:33:55.045Z,27.93
2022-08-19T10:34:57.287Z,27.93
2022-08-19T10:35:56.904Z,27.96
2022-08-19T10:36:56.668Z,27.96
2022-08-19T10:37:57.206Z,27.98
2022-08-19T10:38:56.988Z,27.98
2022-08-19T10:39:55.058Z,27.90
2022-08-19T10:40:54.951Z,28.01
2022-08-19T10:41:54.953Z,27.92
2022-08-19T10:42:54.923Z,27.98
2022-08-19T10:43:54.915Z,28.01
2022-08-19T10:44:54.939Z,27.96
2022-08-19T10:45:54.895Z,28.00
2022-08-19T10:46:54.883Z,28.02
2022-08-19T10:47:55.083Z,27.87
2022-08-19T10:48:54.865Z,27.86
2022-08-19T10:49:54.904Z,27.83
2022-08-19T10:50:54.894Z,27.78
2022-08-19T10:51:54.828Z,27.64
2022-08-19T10:52:55.220Z,27.73
2022-08-19T10:53:54.831Z,27.67
2022-08-19T10:54:54.850Z,27.64
2022-08-19T10:55:54.826Z,27.68
2022-08-19T10:56:54.772Z,27.64
2022-08-19T10:58:02.263Z,27.67
2022-08-19T10:58:55.759Z,27.65
2022-08-19T10:59:54.757Z,27.70
2022-08-19T11:00:54.764Z,27.67
2022-08-19T11:01:54.720Z,27.68
2022-08-19T11:02:54.706Z,27.71
2022-08-19T11:03:54.693Z,27.77
2022-08-19T11:04:54.707Z,27.77
2022-08-19T11:05:54.676Z,27.68
2022-08-19T11:06:54.661Z,27.65
2022-08-19T11:07:54.785Z,27.58
2022-08-19T11:08:54.640Z,27.58
2022-08-19T11:09:54.642Z,27.40
2022-08-19T11:10:54.825Z,27.44
2022-08-19T11:11:54.607Z,27.52
2022-08-19T11:12:54.594Z,27.55
2022-08-19T11:13:54.602Z,27.51
2022-08-19T11:14:54.572Z,27.48
2022-08-19T11:15:54.570Z,27.42
2022-08-19T11:16:54.562Z,27.42
2022-08-19T11:17:54.737Z,27.55
2022-08-19T11:18:54.530Z,27.47
2022-08-19T11:19:54.543Z,27.51
2022-08-19T11:20:54.516Z,27.65
2022-08-19T11:21:54.526Z,27.64
2022-08-19T11:22:54.483Z,27.85
2022-08-19T11:23:54.476Z,27.87
2022-08-19T11:24:54.464Z,28.01
2022-08-19T11:25:54.470Z,28.20
2022-08-19T11:26:54.452Z,28.25
2022-08-19T11:27:54.604Z,28.19
2022-08-19T11:28:54.418Z,28.12
2022-08-19T11:29:54.456Z,28.05
2022-08-19T11:30:54.401Z,27.95
2022-08-19T11:31:54.400Z,27.95
2022-08-19T11:32:54.372Z,28.05
2022-08-19T11:33:54.366Z,28.25
2022-08-19T11:34:54.353Z,28.30
2022-08-19T11:35:54.362Z,28.29
2022-08-19T11:36:54.342Z,28.35
2022-08-19T11:37:54.471Z,28.30
2022-08-19T11:38:54.319Z,28.29
2022-08-19T11:39:54.337Z,28.10
2022-08-19T11:40:54.317Z,28.19
2022-08-19T11:41:54.326Z,28.29
2022-08-19T11:42:54.262Z,28.48
2022-08-19T11:43:54.280Z,28.59
2022-08-19T11:44:54.292Z,28.62
2022-08-19T11:45:54.280Z,28.64
2022-08-19T11:46:54.263Z,28.49
2022-08-19T11:47:54.430Z,28.44
2022-08-19T11:48:54.218Z,28.44
2022-08-19T11:49:54.208Z,28.44
2022-08-19T11:50:54.698Z,28.35
2022-08-19T11:51:54.212Z,28.29
2022-08-19T11:52:54.175Z,28.26
2022-08-19T11:53:54.235Z,28.25
2022-08-19T11:54:54.193Z,28.17
2022-08-19T11:55:54.131Z,28.17
2022-08-19T11:56:54.170Z,28.17
2022-08-19T11:57:54.397Z,27.95
2022-08-19T11:58:54.087Z,27.95
2022-08-19T11:59:54.084Z,27.98
2022-08-19T12:00:54.078Z,28.04
2022-08-19T12:01:54.069Z,28.02
2022-08-19T12:02:54.059Z,28.20
2022-08-19T12:03:54.136Z,28.25
2022-08-19T12:04:54.024Z,28.17
2022-08-19T12:05:54.028Z,27.96
2022-08-19T12:06:54.072Z,27.93
2022-08-19T12:07:54.148Z,27.85
2022-08-19T12:08:53.980Z,27.86
2022-08-19T12:09:53.969Z,27.73
2022-08-19T12:10:53.988Z,27.73
2022-08-19T12:11:53.956Z,27.70
2022-08-19T12:12:58.710Z,27.60
2022-08-19T12:13:54.929Z,27.49
2022-08-19T12:14:53.921Z,27.40
2022-08-19T12:15:53.901Z,27.30
2022-08-19T12:16:53.936Z,27.27
2022-08-19T12:17:54.108Z,27.20
2022-08-19T12:18:53.887Z,27.11
2022-08-19T12:19:53.858Z,27.22
2022-08-19T12:20:53.853Z,27.30
2022-08-19T12:21:53.836Z,27.44
2022-08-19T12:22:53.860Z,27.74
2022-08-19T12:23:55.809Z,27.73
2022-08-19T12:24:53.826Z,28.00
2022-08-19T12:25:53.792Z,28.14
2022-08-19T12:26:54.121Z,28.26
2022-08-19T12:27:57.407Z,28.38
2022-08-19T12:28:53.791Z,28.48
2022-08-19T12:29:53.746Z,28.63
2022-08-19T12:30:53.751Z,28.63
2022-08-19T12:31:53.839Z,28.82
2022-08-19T12:32:53.723Z,28.86
2022-08-19T12:33:53.723Z,28.96
2022-08-19T12:34:53.694Z,29.02
2022-08-19T12:35:53.685Z,29.02
2022-08-19T12:36:53.678Z,28.96
2022-08-19T12:37:56.956Z,28.79
2022-08-19T12:38:53.666Z,28.66
2022-08-19T12:39:53.681Z,28.47
2022-08-19T12:40:56.056Z,28.23
2022-08-19T12:41:55.246Z,28.11
2022-08-19T12:42:53.628Z,27.93
2022-08-19T12:43:53.608Z,27.82
2022-08-19T12:44:53.597Z,27.78
2022-08-19T12:45:53.574Z,27.74
2022-08-19T12:46:53.915Z,27.83
2022-08-19T12:47:54.779Z,27.80
2022-08-19T12:48:55.266Z,27.75
2022-08-19T12:49:55.676Z,27.83
2022-08-19T12:50:53.521Z,27.82
2022-08-19T12:51:53.510Z,28.00
2022-08-19T12:52:53.519Z,27.93
2022-08-19T12:53:53.484Z,28.01
2022-08-19T12:54:53.817Z,28.02